createdAt,value
2017-12-13T00:17:42.751Z,6.9
2017-12-13T00:28:42.659Z,7.3
2017-12-13T00:39:56.434Z,5.8
2017-12-13T00:50:53.226Z,5.3
2017-12-13T01:02:23.766Z,5.2
2017-12-13T01:14:16.228Z,6.2
2017-12-13T01:25:31.795Z,7.1
2017-12-13T01:37:25.287Z,6.8
2017-12-13T01:49:22.231Z,4.6
2017-12-13T02:01:13.214Z,5.7
2017-12-13T02:12:02.407Z,5.8
2017-12-13T02:23:00.253Z,5
2017-12-13T02:33:59.553Z,4.8
2017-12-13T02:45:59.352Z,4.9
2017-12-13T02:57:01.044Z,5.3
2017-12-13T03:07:48.491Z,6.5
2017-12-13T03:18:39.940Z,6
2017-12-13T03:40:43.237Z,5.3
2017-12-13T03:51:26.906Z,5.3
2017-12-13T04:02:26.162Z,5.7
2017-12-13T04:13:33.530Z,5.3
2017-12-13T04:24:30.280Z,5.3
2017-12-13T04:35:30.347Z,6.8
2017-12-13T05:19:29.649Z,4.8
2017-12-13T05:30:32.662Z,4.8
2017-12-13T05:41:14.266Z,4.8
2017-12-13T05:51:56.202Z,5.1
2017-12-13T06:02:44.760Z,6.4
2017-12-13T06:24:18.467Z,6.1
2017-12-13T06:35:24.068Z,5
2017-12-13T06:46:19.337Z,4.3
2017-12-13T06:57:20.737Z,4.8
2017-12-13T07:19:15.133Z,6.4
2017-12-13T07:30:32.830Z,3.1
2017-12-13T07:41:59.463Z,4.2
2017-12-13T07:52:55.735Z,4.4
2017-12-13T08:03:59.238Z,5.1
2017-12-13T08:15:04.850Z,4.1
2017-12-13T08:25:58.556Z,4.6
2017-12-13T08:36:57.320Z,3.5
2017-12-13T08:47:37.797Z,5.5
2017-12-13T08:58:19.254Z,4.8
2017-12-13T09:09:03.761Z,4.5
2017-12-13T09:31:04.586Z,3.4
2017-12-13T09:53:42.059Z,2.9
2017-12-13T10:05:06.715Z,3
2017-12-13T10:16:17.699Z,2.6
2017-12-13T10:38:34.524Z,2.8
2017-12-13T10:49:36.373Z,2.3
2017-12-13T11:00:35.776Z,2.7
2017-12-13T11:11:25.333Z,3.4
2017-12-13T11:33:05.834Z,2.4
2017-12-13T11:43:46.821Z,2.5
2017-12-13T11:54:35.613Z,2.5
2017-12-13T12:05:35.162Z,2.8
2017-12-13T12:27:20.246Z,2.8
2017-12-13T12:38:09.380Z,2.9
2017-12-13T12:49:06.873Z,2.7
2017-12-13T13:00:04.515Z,2.6
2017-12-13T13:32:40.193Z,3.1
2017-12-13T13:43:30.881Z,3.4
2017-12-13T13:54:23.354Z,3.1
2017-12-13T14:05:05.325Z,3.4
2017-12-13T14:15:45.473Z,3.9
2017-12-13T14:26:24.623Z,2.8
2017-12-13T14:37:05.875Z,3.4
2017-12-13T14:58:28.765Z,3.8
2017-12-13T15:09:13.158Z,3.3
2017-12-13T15:19:54.798Z,3.3
2017-12-13T15:30:55.155Z,3.6
2017-12-13T15:43:08.560Z,4
2017-12-13T15:54:40.930Z,4.3
2017-12-13T16:06:13.369Z,4.8
2017-12-13T16:18:23.118Z,4.9
2017-12-13T18:49:56.599Z,6.3
2017-12-13T19:00:40.744Z,4.6
2017-12-13T19:11:27.986Z,4.4
2017-12-13T19:22:14.063Z,7.3
2017-12-13T19:32:57.151Z,6.8
2017-12-13T19:43:40.967Z,3.9
2017-12-13T19:54:46.107Z,4.3
2017-12-13T20:06:00.115Z,6.4
2017-12-13T20:16:57.354Z,3.8
2017-12-13T20:27:51.384Z,4.3
2017-12-13T21:11:04.431Z,3.6
2017-12-13T21:21:57.220Z,3.8
2017-12-13T21:32:40.674Z,2.9
2017-12-13T21:43:25.235Z,2.7
2017-12-13T21:54:11.404Z,2.9
2017-12-13T22:04:53.063Z,3.3
2017-12-13T22:15:36.562Z,3.2
2017-12-13T22:26:20.213Z,2.4
2017-12-13T22:37:04.001Z,2.4
2017-12-13T22:47:49.436Z,2.2
2017-12-13T22:58:46.310Z,2.3
2017-12-13T23:09:41.681Z,2.2
2017-12-13T23:20:34.065Z,2.2
2017-12-13T23:31:19.194Z,2.6
2017-12-13T23:42:08.048Z,2
2017-12-13T23:52:58.030Z,2.4
